OKI1012 EDDK-GCTS
Flight info
| Callsign | OKI1012 |
|---|---|
| Flight time | N/A |
| Altitude | 36000 |
| Route | NVO2Q NVO Y868 NAVAK Z283 IDOSA DCT TOLVU DCT RAPOR DCT GIMER DCT AHVEC DCT RESMI DCT DEKOD DCT DISAK DCT ARKIP DCT ARNAV DCT LMG DCT UVELI DCT OSMOB DCT VAVIX DCT BTZ DCT URUNA DCT SSN DCT VRA DCT NEA L14 ADINO DCT RAKOD DCT ELVAR DCT BEXAL UN866 KONBA KONBA2Z |
| Aircraft | A339/H-SDE2E3FGHIJ1RWXY/LB1 |
Departure
| Time | 2026-05-08 07:52 |
|---|---|
| Airport | Cologne Bonn Airport (EDDK) |
Arrival
| Time | N/A |
|---|---|
| Airport | Tenerife Sur Airport (GCTS) |
| Time | Latitude | Longitude | Altitude | Speed | Heading |
|---|---|---|---|---|---|
| 2026-05-08 07:35 | 50.86228 | 7.12028 | 237 ft | 0 kts | 210° |
| 2026-05-08 07:41 | 50.86234 | 7.12033 | 237 ft | 4 kts | 210° |
| 2026-05-08 07:41 | 50.86257 | 7.12054 | 236 ft | 7 kts | 210° |
| 2026-05-08 07:42 | 50.86280 | 7.12075 | 241 ft | 5 kts | 214° |
| 2026-05-08 07:42 | 50.86301 | 7.12101 | 240 ft | 8 kts | 230° |
| 2026-05-08 07:42 | 50.86316 | 7.12134 | 240 ft | 6 kts | 249° |
| 2026-05-08 07:42 | 50.86323 | 7.12174 | 240 ft | 8 kts | 265° |
| 2026-05-08 07:43 | 50.86324 | 7.12216 | 239 ft | 5 kts | 266° |
| 2026-05-08 07:43 | 50.86326 | 7.12248 | 237 ft | 7 kts | 272° |
| 2026-05-08 07:43 | 50.86323 | 7.12284 | 238 ft | 3 kts | 307° |
| 2026-05-08 07:43 | 50.86314 | 7.12300 | 238 ft | 12 kts | 330° |
| 2026-05-08 07:44 | 50.86287 | 7.12317 | 240 ft | 6 kts | 350° |
| 2026-05-08 07:44 | 50.86261 | 7.12323 | 241 ft | 1 kts | 346° |
| 2026-05-08 07:44 | 50.86258 | 7.12324 | 241 ft | 11 kts | 345° |
| 2026-05-08 07:46 | 50.86259 | 7.12324 | 241 ft | 0 kts | 345° |
| 2026-05-08 07:46 | 50.86267 | 7.12321 | 241 ft | 5 kts | 345° |
| 2026-05-08 07:46 | 50.86354 | 7.12285 | 237 ft | 20 kts | 346° |
| 2026-05-08 07:47 | 50.86503 | 7.12224 | 238 ft | 18 kts | 346° |
| 2026-05-08 07:47 | 50.86623 | 7.12179 | 239 ft | 17 kts | 346° |
| 2026-05-08 07:47 | 50.86732 | 7.12132 | 236 ft | 15 kts | 346° |
| 2026-05-08 07:47 | 50.86833 | 7.12091 | 239 ft | 15 kts | 345° |
| 2026-05-08 07:48 | 50.86938 | 7.12053 | 237 ft | 14 kts | 353° |
| 2026-05-08 07:48 | 50.87023 | 7.12066 | 238 ft | 14 kts | 15° |
| 2026-05-08 07:48 | 50.87106 | 7.12160 | 237 ft | 14 kts | 46° |
| 2026-05-08 07:48 | 50.87191 | 7.12253 | 236 ft | 18 kts | 24° |
| 2026-05-08 07:49 | 50.87326 | 7.12324 | 230 ft | 22 kts | 18° |
| 2026-05-08 07:49 | 50.87473 | 7.12399 | 230 ft | 22 kts | 17° |
| 2026-05-08 07:49 | 50.87612 | 7.12471 | 237 ft | 19 kts | 18° |
| 2026-05-08 07:49 | 50.87730 | 7.12530 | 239 ft | 17 kts | 17° |
| 2026-05-08 07:50 | 50.87836 | 7.12582 | 237 ft | 15 kts | 18° |
| 2026-05-08 07:50 | 50.87921 | 7.12630 | 241 ft | 11 kts | 21° |
| 2026-05-08 07:50 | 50.87972 | 7.12699 | 241 ft | 13 kts | 51° |
| 2026-05-08 07:50 | 50.88006 | 7.12868 | 240 ft | 16 kts | 91° |
| 2026-05-08 07:51 | 50.87976 | 7.13010 | 244 ft | 10 kts | 124° |
| 2026-05-08 07:51 | 50.87953 | 7.13048 | 245 ft | 0 kts | 137° |
| 2026-05-08 07:51 | 50.87920 | 7.13095 | 247 ft | 27 kts | 137° |
| 2026-05-08 07:51 | 50.87633 | 7.13511 | 258 ft | 84 kts | 137° |
| 2026-05-08 07:52 | 50.87072 | 7.14325 | 274 ft | 133 kts | 137° |
| 2026-05-08 07:52 | 50.86282 | 7.15470 | 298 ft | 173 kts | 137° |
| 2026-05-08 07:52 | 50.85372 | 7.16772 | 847 ft | 175 kts | 137° |
| 2026-05-08 07:52 | 50.84473 | 7.18061 | 1698 ft | 170 kts | 139° |
| 2026-05-08 07:53 | 50.83590 | 7.19308 | 2381 ft | 175 kts | 139° |
| 2026-05-08 07:53 | 50.82656 | 7.20616 | 2925 ft | 183 kts | 139° |
| 2026-05-08 07:53 | 50.81668 | 7.21998 | 3476 ft | 191 kts | 138° |
| 2026-05-08 07:53 | 50.80657 | 7.23421 | 4004 ft | 197 kts | 138° |
| 2026-05-08 07:54 | 50.79617 | 7.24888 | 4538 ft | 203 kts | 138° |
| 2026-05-08 07:54 | 50.78513 | 7.26412 | 4909 ft | 221 kts | 144° |
| 2026-05-08 07:54 | 50.77066 | 7.27374 | 5198 ft | 228 kts | 186° |
| 2026-05-08 07:54 | 50.75631 | 7.26531 | 5595 ft | 231 kts | 232° |
| 2026-05-08 07:55 | 50.74812 | 7.24272 | 5717 ft | 253 kts | 248° |
| 2026-05-08 07:55 | 50.74060 | 7.21536 | 5673 ft | 289 kts | 244° |
| 2026-05-08 07:55 | 50.72949 | 7.18654 | 5724 ft | 325 kts | 233° |
| 2026-05-08 07:55 | 50.71393 | 7.15886 | 6068 ft | 351 kts | 224° |
| 2026-05-08 07:56 | 50.69451 | 7.13333 | 6787 ft | 364 kts | 218° |
| 2026-05-08 07:56 | 50.67407 | 7.10848 | 7496 ft | 375 kts | 219° |
| 2026-05-08 07:56 | 50.65420 | 7.08125 | 8412 ft | 382 kts | 223° |
| 2026-05-08 07:56 | 50.63481 | 7.05303 | 9472 ft | 383 kts | 222° |
| 2026-05-08 07:57 | 50.61397 | 7.02512 | 10532 ft | 384 kts | 219° |
| 2026-05-08 07:57 | 50.59332 | 6.99843 | 11520 ft | 384 kts | 220° |
| 2026-05-08 07:57 | 50.57297 | 6.97036 | 12342 ft | 389 kts | 222° |
| 2026-05-08 07:57 | 50.55273 | 6.94192 | 13138 ft | 394 kts | 221° |
| 2026-05-08 07:58 | 50.53174 | 6.91402 | 13946 ft | 398 kts | 220° |
| 2026-05-08 07:58 | 50.51037 | 6.88590 | 14676 ft | 401 kts | 221° |
| 2026-05-08 07:58 | 50.49618 | 6.86651 | 15169 ft | 403 kts | 222° |
| 2026-05-08 07:58 | 50.47457 | 6.83661 | 15956 ft | 404 kts | 222° |
| 2026-05-08 07:59 | 50.45225 | 6.80682 | 16761 ft | 405 kts | 221° |
| 2026-05-08 07:59 | 50.43069 | 6.77836 | 17544 ft | 404 kts | 221° |
| 2026-05-08 07:59 | 50.40948 | 6.74953 | 18368 ft | 402 kts | 222° |
| 2026-05-08 07:59 | 50.38835 | 6.72083 | 19099 ft | 400 kts | 221° |
| 2026-05-08 08:00 | 50.36683 | 6.69236 | 19862 ft | 396 kts | 221° |
| 2026-05-08 08:00 | 50.34600 | 6.66468 | 20601 ft | 391 kts | 222° |
| 2026-05-08 08:00 | 50.32526 | 6.63658 | 21323 ft | 388 kts | 222° |
| 2026-05-08 08:00 | 50.30496 | 6.60942 | 21778 ft | 390 kts | 221° |
| 2026-05-08 08:01 | 50.28379 | 6.58151 | 22172 ft | 394 kts | 221° |
| 2026-05-08 08:01 | 50.26288 | 6.55360 | 22595 ft | 397 kts | 221° |
| 2026-05-08 08:01 | 50.24186 | 6.52536 | 23012 ft | 399 kts | 221° |
| 2026-05-08 08:01 | 50.22057 | 6.49723 | 23432 ft | 402 kts | 221° |
| 2026-05-08 08:02 | 50.19916 | 6.46900 | 23814 ft | 403 kts | 221° |
| 2026-05-08 08:02 | 50.17780 | 6.44050 | 24163 ft | 404 kts | 221° |
| 2026-05-08 08:02 | 50.15633 | 6.41195 | 24514 ft | 405 kts | 221° |
| 2026-05-08 08:02 | 50.13470 | 6.38359 | 24880 ft | 405 kts | 221° |
| 2026-05-08 08:03 | 50.11319 | 6.35521 | 25251 ft | 405 kts | 221° |
| 2026-05-08 08:03 | 50.09163 | 6.32652 | 25617 ft | 405 kts | 221° |
| 2026-05-08 08:03 | 50.07029 | 6.29846 | 26001 ft | 404 kts | 220° |
| 2026-05-08 08:03 | 50.04878 | 6.27038 | 26381 ft | 402 kts | 221° |
| 2026-05-08 08:04 | 50.02746 | 6.24223 | 26746 ft | 402 kts | 221° |
| 2026-05-08 08:04 | 50.00609 | 6.21400 | 27009 ft | 403 kts | 220° |
| 2026-05-08 08:04 | 49.98452 | 6.18591 | 27265 ft | 404 kts | 220° |
| 2026-05-08 08:04 | 49.96269 | 6.15742 | 27543 ft | 405 kts | 221° |
| 2026-05-08 08:05 | 49.94120 | 6.12908 | 27818 ft | 406 kts | 221° |
| 2026-05-08 08:05 | 49.91957 | 6.10083 | 28094 ft | 406 kts | 220° |
| 2026-05-08 08:05 | 49.89790 | 6.07276 | 28371 ft | 406 kts | 220° |
| 2026-05-08 08:05 | 49.87632 | 6.04456 | 28649 ft | 406 kts | 221° |
| 2026-05-08 08:06 | 49.85474 | 6.01633 | 28939 ft | 405 kts | 220° |
| 2026-05-08 08:06 | 49.83311 | 5.98833 | 29228 ft | 405 kts | 220° |
| 2026-05-08 08:06 | 49.81152 | 5.96038 | 29507 ft | 403 kts | 220° |
| 2026-05-08 08:06 | 49.79010 | 5.93244 | 29809 ft | 402 kts | 220° |
| 2026-05-08 08:07 | 49.76867 | 5.90466 | 30113 ft | 401 kts | 220° |
| 2026-05-08 08:07 | 49.74837 | 5.87543 | 30347 ft | 396 kts | 233° |
| 2026-05-08 08:07 | 49.73378 | 5.84006 | 30723 ft | 388 kts | 236° |
| 2026-05-08 08:07 | 49.71673 | 5.80770 | 30848 ft | 388 kts | 224° |
| 2026-05-08 08:08 | 49.69649 | 5.77965 | 31000 ft | 392 kts | 221° |
| 2026-05-08 08:08 | 49.67641 | 5.75079 | 31156 ft | 397 kts | 227° |
| 2026-05-08 08:08 | 49.65836 | 5.71815 | 31296 ft | 403 kts | 232° |
| 2026-05-08 08:08 | 49.64068 | 5.68341 | 31439 ft | 409 kts | 230° |
| 2026-05-08 08:09 | 49.62145 | 5.65072 | 31578 ft | 415 kts | 225° |
| 2026-05-08 08:09 | 49.60099 | 5.61881 | 31717 ft | 421 kts | 227° |
| 2026-05-08 08:09 | 49.58121 | 5.58422 | 31867 ft | 428 kts | 231° |
| 2026-05-08 08:09 | 49.56219 | 5.54863 | 31992 ft | 434 kts | 229° |
| 2026-05-08 08:10 | 49.54169 | 5.51396 | 32130 ft | 441 kts | 226° |
| 2026-05-08 08:10 | 49.52024 | 5.47974 | 32265 ft | 447 kts | 227° |
| 2026-05-08 08:10 | 49.49943 | 5.44369 | 32403 ft | 453 kts | 230° |
| 2026-05-08 08:10 | 49.47890 | 5.40633 | 32565 ft | 459 kts | 229° |
| 2026-05-08 08:11 | 49.45701 | 5.36938 | 32713 ft | 464 kts | 226° |
| 2026-05-08 08:11 | 49.43465 | 5.33323 | 32871 ft | 467 kts | 227° |
| 2026-05-08 08:11 | 49.41337 | 5.29664 | 33045 ft | 463 kts | 229° |
| 2026-05-08 08:11 | 49.39208 | 5.25872 | 33352 ft | 464 kts | 229° |
| 2026-05-08 08:12 | 49.37031 | 5.22213 | 33614 ft | 464 kts | 227° |
| 2026-05-08 08:12 | 49.34817 | 5.18608 | 33875 ft | 463 kts | 227° |
| 2026-05-08 08:12 | 49.32665 | 5.14936 | 34146 ft | 463 kts | 229° |
| 2026-05-08 08:12 | 49.30543 | 5.11222 | 34376 ft | 463 kts | 228° |
| 2026-05-08 08:13 | 49.28370 | 5.07582 | 34615 ft | 464 kts | 227° |
| 2026-05-08 08:13 | 49.26163 | 5.03974 | 34866 ft | 464 kts | 227° |
| 2026-05-08 08:13 | 49.23970 | 5.00255 | 35108 ft | 464 kts | 229° |
| 2026-05-08 08:13 | 49.21824 | 4.96550 | 35350 ft | 465 kts | 228° |
| 2026-05-08 08:14 | 49.19636 | 4.92911 | 35603 ft | 465 kts | 227° |
| 2026-05-08 08:14 | 49.17429 | 4.89299 | 35854 ft | 465 kts | 227° |
| 2026-05-08 08:14 | 49.15254 | 4.85624 | 36098 ft | 466 kts | 229° |
| 2026-05-08 08:15 | 49.10877 | 4.78275 | 36071 ft | 466 kts | 227° |
| 2026-05-08 08:15 | 49.06520 | 4.71050 | 36077 ft | 463 kts | 228° |
| 2026-05-08 08:16 | 49.02091 | 4.63675 | 36077 ft | 469 kts | 227° |
| 2026-05-08 08:16 | 48.97670 | 4.56366 | 36079 ft | 469 kts | 228° |
| 2026-05-08 08:17 | 48.94001 | 4.50287 | 36082 ft | 470 kts | 227° |
| 2026-05-08 08:17 | 48.89499 | 4.42896 | 36074 ft | 470 kts | 228° |
| 2026-05-08 08:18 | 48.85061 | 4.35592 | 36073 ft | 470 kts | 227° |
| 2026-05-08 08:18 | 48.80579 | 4.28261 | 36077 ft | 470 kts | 228° |
| 2026-05-08 08:19 | 48.76067 | 4.20888 | 36074 ft | 471 kts | 227° |
| 2026-05-08 08:19 | 48.71592 | 4.13593 | 36074 ft | 471 kts | 228° |
| 2026-05-08 08:20 | 48.67099 | 4.06311 | 36073 ft | 472 kts | 227° |
| 2026-05-08 08:20 | 48.62591 | 3.98985 | 36073 ft | 472 kts | 228° |
| 2026-05-08 08:21 | 48.58058 | 3.91696 | 36072 ft | 472 kts | 227° |
| 2026-05-08 08:21 | 48.53573 | 3.84436 | 36072 ft | 472 kts | 228° |
| 2026-05-08 08:22 | 48.49031 | 3.77180 | 36074 ft | 473 kts | 228° |
| 2026-05-08 08:22 | 48.44506 | 3.69894 | 36075 ft | 473 kts | 227° |
| 2026-05-08 08:23 | 48.39944 | 3.62646 | 36068 ft | 473 kts | 228° |
| 2026-05-08 08:23 | 48.35409 | 3.55390 | 36064 ft | 473 kts | 227° |
| 2026-05-08 08:24 | 48.30843 | 3.48166 | 36061 ft | 473 kts | 228° |
| 2026-05-08 08:24 | 48.26316 | 3.40977 | 36059 ft | 473 kts | 227° |
| 2026-05-08 08:25 | 48.21780 | 3.33822 | 36068 ft | 473 kts | 228° |
| 2026-05-08 08:25 | 48.17205 | 3.26615 | 36053 ft | 473 kts | 227° |
| 2026-05-08 08:26 | 48.12670 | 3.19485 | 36068 ft | 473 kts | 228° |
| 2026-05-08 08:26 | 48.08056 | 3.12270 | 36039 ft | 473 kts | 227° |
| 2026-05-08 08:27 | 48.03513 | 3.05158 | 36041 ft | 472 kts | 228° |
| 2026-05-08 08:27 | 47.98963 | 2.98087 | 36038 ft | 472 kts | 227° |
| 2026-05-08 08:28 | 47.94417 | 2.91003 | 36057 ft | 472 kts | 228° |
| 2026-05-08 08:28 | 47.90602 | 2.85110 | 36046 ft | 471 kts | 227° |
| 2026-05-08 08:29 | 47.86063 | 2.78074 | 36054 ft | 471 kts | 228° |
| 2026-05-08 08:29 | 47.81500 | 2.71062 | 36047 ft | 471 kts | 227° |
| 2026-05-08 08:30 | 47.76946 | 2.64034 | 36042 ft | 471 kts | 228° |
| 2026-05-08 08:30 | 47.70127 | 2.53605 | 36034 ft | 471 kts | 228° |
| 2026-05-08 08:31 | 47.65566 | 2.46630 | 36033 ft | 471 kts | 227° |
| 2026-05-08 08:31 | 47.60970 | 2.39631 | 36025 ft | 470 kts | 228° |
| 2026-05-08 08:32 | 47.56430 | 2.32737 | 36021 ft | 470 kts | 228° |
| 2026-05-08 08:32 | 47.51859 | 2.25803 | 36015 ft | 470 kts | 228° |
| 2026-05-08 08:33 | 47.47276 | 2.18889 | 36008 ft | 470 kts | 228° |
| 2026-05-08 08:33 | 47.42695 | 2.11969 | 36004 ft | 471 kts | 228° |
| 2026-05-08 08:34 | 47.38098 | 2.05075 | 36009 ft | 471 kts | 228° |
| 2026-05-08 08:34 | 47.33509 | 1.98178 | 36005 ft | 471 kts | 228° |
| 2026-05-08 08:35 | 47.28893 | 1.91291 | 36019 ft | 471 kts | 228° |
| 2026-05-08 08:35 | 47.24260 | 1.84369 | 36018 ft | 472 kts | 228° |
| 2026-05-08 08:36 | 47.19176 | 1.78294 | 36082 ft | 480 kts | 210° |
| 2026-05-08 08:36 | 47.12909 | 1.74665 | 36009 ft | 484 kts | 205° |
| 2026-05-08 08:37 | 47.06614 | 1.71079 | 36001 ft | 485 kts | 205° |
| 2026-05-08 08:37 | 47.00244 | 1.67561 | 36003 ft | 485 kts | 205° |
| 2026-05-08 08:38 | 46.93950 | 1.63984 | 36017 ft | 486 kts | 205° |
| 2026-05-08 08:38 | 46.87568 | 1.60467 | 36014 ft | 486 kts | 205° |
| 2026-05-08 08:39 | 46.81258 | 1.56912 | 36011 ft | 486 kts | 205° |
| 2026-05-08 08:39 | 46.75069 | 1.53508 | 36009 ft | 486 kts | 205° |
| 2026-05-08 08:40 | 46.68623 | 1.49908 | 36008 ft | 487 kts | 205° |
| 2026-05-08 08:40 | 46.62278 | 1.46421 | 35997 ft | 486 kts | 205° |
| 2026-05-08 08:41 | 46.55941 | 1.42911 | 35983 ft | 487 kts | 205° |
| 2026-05-08 08:41 | 46.49596 | 1.39431 | 35972 ft | 487 kts | 206° |
| 2026-05-08 08:42 | 46.43252 | 1.35946 | 35973 ft | 487 kts | 205° |
| 2026-05-08 08:42 | 46.36905 | 1.32469 | 35970 ft | 487 kts | 206° |
| 2026-05-08 08:43 | 46.30562 | 1.29015 | 35971 ft | 487 kts | 205° |
| 2026-05-08 08:43 | 46.24768 | 1.25851 | 35969 ft | 486 kts | 206° |
| 2026-05-08 08:44 | 46.18675 | 1.22544 | 35972 ft | 487 kts | 205° |
| 2026-05-08 08:44 | 46.12333 | 1.19102 | 35979 ft | 486 kts | 206° |
| 2026-05-08 08:45 | 46.05991 | 1.15680 | 35981 ft | 486 kts | 205° |
| 2026-05-08 08:45 | 45.99662 | 1.12255 | 35983 ft | 485 kts | 206° |
| 2026-05-08 08:46 | 45.93331 | 1.08860 | 35987 ft | 485 kts | 205° |
| 2026-05-08 08:46 | 45.87013 | 1.05455 | 35995 ft | 484 kts | 206° |
| 2026-05-08 08:47 | 45.80900 | 1.01605 | 36025 ft | 471 kts | 221° |
| 2026-05-08 08:47 | 45.75860 | 0.95659 | 35976 ft | 469 kts | 224° |
| 2026-05-08 08:48 | 45.70835 | 0.89708 | 35978 ft | 468 kts | 225° |
| 2026-05-08 08:48 | 45.65835 | 0.83661 | 35966 ft | 468 kts | 224° |
| 2026-05-08 08:49 | 45.60821 | 0.77755 | 35960 ft | 466 kts | 225° |
| 2026-05-08 08:49 | 45.55878 | 0.71826 | 35959 ft | 466 kts | 224° |
| 2026-05-08 08:50 | 45.50876 | 0.65943 | 35957 ft | 465 kts | 225° |
| 2026-05-08 08:50 | 45.45901 | 0.60022 | 35958 ft | 465 kts | 223° |
| 2026-05-08 08:51 | 45.40919 | 0.54175 | 35959 ft | 464 kts | 224° |
| 2026-05-08 08:51 | 45.35953 | 0.48306 | 35956 ft | 464 kts | 223° |
| 2026-05-08 08:52 | 45.30943 | 0.42435 | 35957 ft | 463 kts | 224° |
| 2026-05-08 08:52 | 45.26821 | 0.37588 | 35949 ft | 463 kts | 223° |
| 2026-05-08 08:53 | 45.21832 | 0.31779 | 35946 ft | 463 kts | 224° |
| 2026-05-08 08:53 | 45.16866 | 0.25970 | 35943 ft | 463 kts | 223° |
| 2026-05-08 08:54 | 45.11887 | 0.20184 | 35946 ft | 462 kts | 223° |
| 2026-05-08 08:54 | 45.06902 | 0.14395 | 35941 ft | 463 kts | 223° |
| 2026-05-08 08:55 | 45.01923 | 0.08622 | 35933 ft | 463 kts | 223° |
| 2026-05-08 08:55 | 44.96935 | 0.02871 | 35952 ft | 463 kts | 222° |
| 2026-05-08 08:56 | 44.91987 | -0.02851 | 35959 ft | 462 kts | 223° |
| 2026-05-08 08:56 | 44.86999 | -0.08569 | 35960 ft | 462 kts | 222° |
| 2026-05-08 08:57 | 44.82027 | -0.14296 | 35951 ft | 461 kts | 222° |
| 2026-05-08 08:57 | 44.77049 | -0.19973 | 35947 ft | 460 kts | 222° |
| 2026-05-08 08:58 | 44.72083 | -0.25670 | 35941 ft | 460 kts | 222° |
| 2026-05-08 08:58 | 44.67098 | -0.31331 | 35942 ft | 459 kts | 222° |
| 2026-05-08 08:59 | 44.61963 | -0.36683 | 35950 ft | 461 kts | 216° |
| 2026-05-08 08:59 | 44.56663 | -0.41760 | 35948 ft | 460 kts | 218° |
| 2026-05-08 09:00 | 44.51393 | -0.46859 | 35948 ft | 460 kts | 216° |
| 2026-05-08 09:00 | 44.46113 | -0.51899 | 35936 ft | 459 kts | 218° |
| 2026-05-08 09:01 | 44.40845 | -0.56955 | 35938 ft | 459 kts | 216° |
| 2026-05-08 09:01 | 44.35577 | -0.61980 | 35940 ft | 458 kts | 217° |
| 2026-05-08 09:02 | 44.30310 | -0.66995 | 35937 ft | 458 kts | 216° |
| 2026-05-08 09:02 | 44.25143 | -0.72141 | 35937 ft | 456 kts | 219° |
| 2026-05-08 09:03 | 44.19998 | -0.77341 | 35935 ft | 457 kts | 217° |
| 2026-05-08 09:03 | 44.14881 | -0.82592 | 35935 ft | 455 kts | 219° |
| 2026-05-08 09:04 | 44.09746 | -0.87776 | 35926 ft | 456 kts | 217° |
| 2026-05-08 09:04 | 44.04615 | -0.93025 | 35928 ft | 455 kts | 218° |
| 2026-05-08 09:05 | 43.99439 | -0.98220 | 35923 ft | 455 kts | 217° |
| 2026-05-08 09:05 | 43.94336 | -1.03423 | 35924 ft | 454 kts | 218° |
| 2026-05-08 09:06 | 43.89197 | -1.08554 | 35935 ft | 454 kts | 217° |
| 2026-05-08 09:06 | 43.84420 | -1.13405 | 35932 ft | 454 kts | 217° |
| 2026-05-08 09:07 | 43.79155 | -1.18646 | 35934 ft | 454 kts | 217° |
| 2026-05-08 09:07 | 43.74063 | -1.23794 | 35933 ft | 453 kts | 217° |
| 2026-05-08 09:08 | 43.70570 | -1.27258 | 35927 ft | 453 kts | 216° |
| 2026-05-08 09:08 | 43.64847 | -1.32990 | 35932 ft | 453 kts | 217° |
| 2026-05-08 09:09 | 43.59858 | -1.37923 | 35915 ft | 452 kts | 216° |
| 2026-05-08 09:09 | 43.54723 | -1.43060 | 35916 ft | 452 kts | 216° |
| 2026-05-08 09:10 | 43.49582 | -1.48121 | 35918 ft | 452 kts | 216° |
| 2026-05-08 09:10 | 43.45148 | -1.54121 | 35933 ft | 452 kts | 235° |
| 2026-05-08 09:11 | 43.42490 | -1.59700 | 35910 ft | 452 kts | 235° |
| 2026-05-08 09:11 | 43.40028 | -1.64653 | 35910 ft | 452 kts | 234° |
| 2026-05-08 09:12 | 43.36282 | -1.72489 | 35923 ft | 452 kts | 235° |
| 2026-05-08 09:12 | 43.32735 | -1.79650 | 35924 ft | 453 kts | 235° |
| 2026-05-08 09:13 | 43.29045 | -1.86783 | 35921 ft | 452 kts | 230° |
| 2026-05-08 09:13 | 43.25230 | -1.93736 | 35909 ft | 453 kts | 232° |
| 2026-05-08 09:14 | 43.21376 | -2.00696 | 35913 ft | 453 kts | 230° |
| 2026-05-08 09:14 | 43.17488 | -2.07744 | 35912 ft | 454 kts | 232° |
| 2026-05-08 09:15 | 43.14236 | -2.13593 | 35919 ft | 455 kts | 230° |
| 2026-05-08 09:15 | 43.10449 | -2.20385 | 35922 ft | 456 kts | 231° |
| 2026-05-08 09:16 | 43.06506 | -2.27464 | 35925 ft | 456 kts | 230° |
| 2026-05-08 09:16 | 43.02694 | -2.34290 | 35931 ft | 457 kts | 231° |
| 2026-05-08 09:17 | 42.99398 | -2.40180 | 35923 ft | 457 kts | 230° |